createdAt,value
2019-03-26T00:00:05.974Z,10.30
2019-03-26T00:02:34.392Z,10.77
2019-03-26T00:05:02.773Z,10.80
2019-03-26T00:07:31.191Z,11.30
2019-03-26T00:09:59.582Z,10.50
2019-03-26T00:12:27.999Z,10.20
2019-03-26T00:14:56.413Z,9.70
2019-03-26T00:17:24.821Z,9.80
2019-03-26T00:19:53.296Z,11.23
2019-03-26T00:22:21.707Z,9.80
2019-03-26T00:24:50.108Z,10.17
2019-03-26T00:27:18.529Z,9.90
2019-03-26T00:29:46.937Z,10.70
2019-03-26T00:32:15.358Z,10.83
2019-03-26T00:34:43.737Z,9.90
2019-03-26T00:37:12.153Z,10.63
2019-03-26T00:39:40.555Z,10.43
2019-03-26T00:42:08.983Z,10.83
2019-03-26T00:44:37.370Z,9.33
2019-03-26T00:47:05.785Z,10.20
2019-03-26T00:49:34.204Z,11.00
2019-03-26T00:52:02.627Z,10.57
2019-03-26T00:54:31.020Z,9.87
2019-03-26T00:56:59.447Z,10.90
2019-03-26T00:59:27.847Z,10.50
2019-03-26T01:01:56.423Z,8.90
2019-03-26T01:04:32.601Z,9.40
2019-03-26T01:06:54.937Z,9.50
2019-03-26T01:09:23.366Z,10.07
2019-03-26T01:11:51.776Z,9.50
2019-03-26T01:14:20.189Z,9.80
2019-03-26T01:16:48.627Z,9.13
2019-03-26T01:19:17.023Z,8.47
2019-03-26T01:21:45.419Z,9.13
2019-03-26T01:24:13.836Z,8.97
2019-03-26T01:26:42.271Z,9.73
2019-03-26T01:29:10.679Z,9.93
2019-03-26T01:31:39.115Z,10.83
2019-03-26T01:34:07.498Z,10.00
2019-03-26T01:36:35.916Z,10.13
2019-03-26T01:39:06.413Z,9.40
2019-03-26T01:41:34.851Z,9.60
2019-03-26T01:44:03.241Z,9.37
2019-03-26T01:46:31.659Z,8.77
2019-03-26T01:49:00.055Z,9.03
2019-03-26T01:51:28.527Z,10.40
2019-03-26T01:53:56.938Z,10.20
2019-03-26T01:56:25.350Z,9.47
2019-03-26T01:58:53.768Z,9.97
2019-03-26T02:01:22.172Z,10.80
2019-03-26T02:03:50.617Z,11.67
2019-03-26T02:06:19.082Z,9.80
2019-03-26T02:08:47.499Z,9.50
2019-03-26T02:11:16.039Z,10.67
2019-03-26T02:13:44.466Z,11.40
2019-03-26T02:16:12.858Z,11.20
2019-03-26T02:18:41.282Z,11.40
2019-03-26T02:21:10.151Z,11.10
2019-03-26T02:23:38.592Z,12.20
2019-03-26T02:26:06.975Z,11.13
2019-03-26T02:28:35.415Z,11.07
2019-03-26T02:31:03.816Z,12.23
2019-03-26T02:33:32.237Z,11.00
2019-03-26T02:36:00.636Z,13.03
2019-03-26T02:38:29.059Z,12.43
2019-03-26T02:40:57.465Z,13.40
2019-03-26T02:43:25.895Z,11.80
2019-03-26T02:45:54.278Z,12.87
2019-03-26T02:48:22.708Z,10.80
2019-03-26T02:50:52.130Z,11.17
2019-03-26T02:53:20.542Z,12.70
2019-03-26T02:55:48.970Z,11.23
2019-03-26T02:58:17.368Z,11.40
2019-03-26T03:00:45.777Z,11.87
2019-03-26T03:03:14.196Z,10.50
2019-03-26T03:05:42.602Z,10.37
2019-03-26T03:08:11.004Z,11.70
2019-03-26T03:10:39.411Z,12.63
2019-03-26T03:13:07.803Z,10.50
2019-03-26T03:15:36.274Z,10.97
2019-03-26T03:18:04.850Z,12.50
2019-03-26T03:20:33.268Z,10.90
2019-03-26T03:23:01.672Z,11.90
2019-03-26T03:25:30.076Z,12.00
2019-03-26T03:27:58.506Z,11.53
2019-03-26T03:30:26.900Z,12.20
2019-03-26T03:32:55.299Z,11.97
2019-03-26T03:35:23.715Z,11.00
2019-03-26T03:37:52.114Z,10.30
2019-03-26T03:40:20.591Z,11.90
2019-03-26T03:42:48.993Z,10.60
2019-03-26T03:45:20.482Z,10.40
2019-03-26T03:47:48.964Z,10.40
2019-03-26T03:50:18.440Z,11.70
2019-03-26T03:52:47.102Z,10.40
2019-03-26T03:55:15.573Z,11.83
2019-03-26T03:57:47.534Z,10.60
2019-03-26T04:00:22.059Z,11.43
2019-03-26T04:02:50.477Z,12.37
2019-03-26T04:05:18.883Z,10.93
2019-03-26T04:07:47.301Z,12.43
2019-03-26T04:10:15.702Z,12.30
2019-03-26T04:12:44.121Z,13.03
2019-03-26T04:15:12.649Z,12.80
2019-03-26T04:17:41.049Z,11.43
2019-03-26T04:20:09.526Z,11.93
2019-03-26T04:22:37.922Z,10.70
2019-03-26T04:25:06.481Z,12.10
2019-03-26T04:27:36.545Z,11.70
2019-03-26T04:30:07.147Z,11.97
2019-03-26T04:32:35.567Z,12.30
2019-03-26T04:35:06.206Z,13.30
2019-03-26T04:37:34.605Z,13.87
2019-03-26T04:40:03.106Z,12.90
2019-03-26T04:42:31.491Z,13.73
2019-03-26T04:44:59.915Z,12.90
2019-03-26T04:47:28.393Z,14.37
2019-03-26T04:49:56.894Z,14.23
2019-03-26T04:52:25.286Z,14.63
2019-03-26T04:54:53.691Z,13.57
2019-03-26T04:57:22.107Z,13.50
2019-03-26T04:59:50.518Z,13.93
2019-03-26T05:02:18.915Z,14.23
2019-03-26T05:04:47.328Z,21.63
2019-03-26T05:07:15.737Z,18.27
2019-03-26T05:09:44.148Z,16.03
2019-03-26T05:12:12.547Z,15.37
2019-03-26T05:14:40.968Z,14.33
2019-03-26T05:17:09.367Z,13.43
2019-03-26T05:19:37.778Z,12.80
2019-03-26T05:22:06.193Z,12.90
2019-03-26T05:24:34.594Z,16.30
2019-03-26T05:27:03.010Z,16.27
2019-03-26T05:29:31.416Z,43.00
2019-03-26T05:31:59.819Z,14.83
2019-03-26T05:34:28.231Z,16.50
2019-03-26T05:36:56.631Z,16.37
2019-03-26T05:39:25.042Z,24.77
2019-03-26T05:41:53.430Z,50.27
2019-03-26T05:44:21.833Z,18.80
2019-03-26T05:46:50.258Z,17.77
2019-03-26T05:49:18.678Z,28.80
2019-03-26T05:51:47.078Z,21.80
2019-03-26T05:54:15.485Z,15.40
2019-03-26T05:56:43.887Z,19.77
2019-03-26T05:59:12.304Z,17.33
2019-03-26T06:01:40.708Z,15.13
2019-03-26T06:04:09.111Z,15.13
2019-03-26T06:06:37.541Z,15.67
2019-03-26T06:09:06.331Z,14.60
2019-03-26T06:11:34.720Z,16.20
2019-03-26T06:14:03.139Z,15.00
2019-03-26T06:16:38.390Z,15.37
2019-03-26T06:19:01.662Z,15.50
2019-03-26T06:21:30.071Z,16.60
2019-03-26T06:23:58.475Z,15.13
2019-03-26T06:26:26.896Z,19.00
2019-03-26T06:28:55.286Z,14.90
2019-03-26T06:31:23.767Z,18.80
2019-03-26T06:33:52.560Z,15.50
2019-03-26T06:36:20.961Z,17.63
2019-03-26T06:38:49.357Z,17.10
2019-03-26T06:41:17.784Z,17.33
2019-03-26T06:43:46.265Z,16.93
2019-03-26T06:46:14.689Z,17.77
2019-03-26T06:48:43.088Z,14.70
2019-03-26T06:51:11.499Z,17.10
2019-03-26T06:53:39.909Z,16.20
2019-03-26T06:56:08.324Z,16.20
2019-03-26T06:58:36.725Z,17.70
2019-03-26T07:01:05.422Z,14.80
2019-03-26T07:03:33.805Z,16.20
2019-03-26T07:06:02.224Z,16.90
2019-03-26T07:08:30.609Z,15.97
2019-03-26T07:10:59.039Z,14.87
2019-03-26T07:13:27.423Z,17.17
2019-03-26T07:15:55.853Z,17.30
2019-03-26T07:18:24.248Z,17.03
2019-03-26T07:20:52.743Z,16.63
2019-03-26T07:23:21.131Z,14.33
2019-03-26T07:25:49.565Z,22.03
2019-03-26T07:28:18.014Z,23.50
2019-03-26T07:30:47.277Z,16.70
2019-03-26T07:33:15.832Z,15.40
2019-03-26T07:35:44.383Z,16.10
2019-03-26T07:38:12.854Z,16.27
2019-03-26T07:40:41.248Z,19.67
2019-03-26T07:43:09.807Z,15.40
2019-03-26T07:45:38.261Z,13.73
2019-03-26T07:48:06.815Z,16.40
2019-03-26T07:50:35.213Z,14.23
2019-03-26T07:53:03.689Z,13.90
2019-03-26T07:55:32.076Z,12.23
2019-03-26T07:58:00.501Z,16.47
2019-03-26T08:00:49.759Z,15.70
2019-03-26T08:03:21.030Z,14.20
2019-03-26T08:05:48.301Z,14.50
2019-03-26T08:08:16.711Z,12.80
2019-03-26T08:10:45.102Z,15.20
2019-03-26T08:13:13.541Z,15.40
2019-03-26T08:15:41.926Z,15.00
2019-03-26T08:18:10.406Z,13.87
2019-03-26T08:20:38.809Z,16.83
2019-03-26T08:23:07.269Z,13.80
2019-03-26T08:25:35.706Z,13.50
2019-03-26T08:28:05.181Z,14.93
2019-03-26T08:30:33.881Z,14.37
2019-03-26T08:33:02.294Z,13.60
2019-03-26T08:35:30.687Z,15.00
2019-03-26T08:38:11.722Z,13.53
2019-03-26T08:40:29.217Z,14.13
2019-03-26T08:42:57.627Z,16.87
2019-03-26T08:45:26.024Z,18.97
2019-03-26T08:47:54.445Z,16.50
2019-03-26T08:50:22.838Z,14.30
2019-03-26T08:52:51.283Z,14.23
2019-03-26T08:55:19.743Z,14.70
2019-03-26T08:57:48.141Z,15.10
2019-03-26T09:00:16.663Z,15.37
2019-03-26T09:02:45.075Z,13.17
2019-03-26T09:05:14.136Z,15.37
2019-03-26T09:07:43.525Z,12.90
2019-03-26T09:10:13.576Z,15.27
2019-03-26T09:12:42.001Z,13.37
2019-03-26T09:15:14.423Z,13.87
2019-03-26T09:17:44.678Z,14.10
2019-03-26T09:20:13.623Z,13.70
2019-03-26T09:22:42.036Z,12.90
2019-03-26T09:25:10.885Z,14.03
2019-03-26T09:27:39.284Z,13.47
2019-03-26T09:30:10.303Z,11.93
2019-03-26T09:32:39.346Z,13.43
2019-03-26T09:35:09.582Z,13.83
2019-03-26T09:37:38.069Z,13.50
2019-03-26T09:40:10.268Z,13.73
2019-03-26T09:42:39.214Z,15.07
2019-03-26T09:45:09.353Z,14.53
2019-03-26T09:47:37.914Z,14.20
2019-03-26T09:50:10.301Z,16.03
2019-03-26T09:52:38.775Z,15.80
2019-03-26T09:55:08.099Z,15.17
2019-03-26T09:57:37.178Z,15.17
2019-03-26T10:00:08.980Z,15.37
2019-03-26T10:02:37.467Z,16.87
2019-03-26T10:05:07.095Z,13.67
2019-03-26T10:07:35.481Z,15.00
2019-03-26T10:10:08.438Z,13.50
2019-03-26T10:12:36.860Z,15.13
2019-03-26T10:15:08.603Z,15.50
2019-03-26T10:17:37.484Z,13.77
2019-03-26T10:20:07.809Z,15.60
2019-03-26T10:22:39.219Z,13.93
2019-03-26T10:25:10.928Z,15.47
2019-03-26T10:27:39.303Z,13.80
2019-03-26T10:30:08.854Z,16.83
2019-03-26T10:32:37.329Z,15.97
2019-03-26T10:35:06.584Z,14.90
2019-03-26T10:37:34.991Z,15.80
2019-03-26T10:40:04.854Z,11.37
2019-03-26T10:42:33.255Z,15.50
2019-03-26T10:45:01.667Z,11.47
2019-03-26T10:47:30.071Z,11.20
2019-03-26T10:49:58.502Z,10.90
2019-03-26T10:52:26.909Z,11.80
2019-03-26T10:54:55.336Z,10.57
2019-03-26T10:57:23.735Z,10.10
2019-03-26T10:59:52.168Z,11.33
2019-03-26T11:02:20.550Z,10.87
2019-03-26T11:04:48.960Z,11.77
2019-03-26T11:07:17.359Z,11.90
2019-03-26T11:09:45.787Z,11.20
2019-03-26T11:12:14.190Z,10.10
2019-03-26T11:14:42.590Z,10.90
2019-03-26T11:17:10.981Z,10.70
2019-03-26T11:19:39.406Z,10.90
2019-03-26T11:22:07.881Z,11.00
2019-03-26T11:24:36.315Z,15.03
2019-03-26T11:27:04.685Z,13.30
2019-03-26T11:29:33.125Z,11.20
2019-03-26T11:32:01.519Z,11.10
2019-03-26T11:34:29.913Z,11.63
2019-03-26T11:36:58.328Z,11.10
2019-03-26T11:39:32.654Z,12.10
2019-03-26T11:41:56.863Z,11.83
2019-03-26T11:44:25.341Z,10.87
2019-03-26T11:46:53.742Z,11.30
2019-03-26T11:49:22.175Z,12.50
2019-03-26T11:51:50.557Z,7.40
2019-03-26T11:54:18.968Z,6.50
2019-03-26T11:56:47.387Z,11.00
2019-03-26T11:59:15.787Z,7.90
2019-03-26T12:01:44.190Z,8.20
2019-03-26T12:04:12.596Z,7.90
2019-03-26T12:06:41.074Z,8.30
2019-03-26T12:09:09.544Z,9.67
2019-03-26T12:11:37.933Z,10.07
2019-03-26T12:14:06.424Z,10.43
2019-03-26T12:16:34.822Z,8.90
2019-03-26T12:19:03.255Z,8.40
2019-03-26T12:21:31.645Z,8.60
2019-03-26T12:24:00.061Z,8.90
2019-03-26T12:26:28.470Z,8.87
2019-03-26T12:28:56.889Z,8.33
2019-03-26T12:31:25.290Z,9.33
2019-03-26T12:33:53.713Z,8.53
2019-03-26T12:36:22.100Z,8.70
2019-03-26T12:38:50.587Z,8.80
2019-03-26T12:41:18.989Z,8.57
2019-03-26T12:43:47.406Z,7.67
2019-03-26T12:46:15.803Z,8.20
2019-03-26T12:48:44.222Z,8.70
2019-03-26T12:51:12.606Z,7.17
2019-03-26T12:53:41.028Z,6.73
2019-03-26T12:56:09.422Z,6.97
2019-03-26T12:58:37.849Z,8.00
2019-03-26T13:01:06.248Z,16.83
2019-03-26T13:03:34.657Z,5.70
2019-03-26T13:06:03.199Z,5.67
2019-03-26T13:08:31.609Z,5.50
2019-03-26T13:10:59.985Z,5.47
2019-03-26T13:13:28.396Z,5.17
2019-03-26T13:15:56.783Z,9.63
2019-03-26T13:18:25.195Z,5.53
2019-03-26T13:20:53.959Z,5.03
2019-03-26T13:23:22.376Z,5.57
2019-03-26T13:25:50.780Z,4.90
2019-03-26T13:28:19.187Z,12.97
2019-03-26T13:30:47.657Z,5.37
2019-03-26T13:33:16.067Z,7.30
2019-03-26T13:35:44.475Z,6.33
2019-03-26T13:38:12.879Z,6.40
2019-03-26T13:40:41.288Z,6.10
2019-03-26T13:43:09.706Z,6.20
2019-03-26T13:45:38.159Z,5.20
2019-03-26T13:48:06.625Z,6.67
2019-03-26T13:50:35.042Z,6.17
2019-03-26T13:53:03.514Z,5.67
2019-03-26T13:55:31.924Z,5.53
2019-03-26T13:58:00.343Z,5.93
2019-03-26T14:00:34.302Z,4.90
2019-03-26T14:03:02.764Z,4.73
2019-03-26T14:05:31.245Z,4.87
2019-03-26T14:07:59.644Z,4.60
2019-03-26T14:10:40.117Z,5.30
2019-03-26T14:12:58.219Z,4.47
2019-03-26T14:15:26.676Z,4.97
2019-03-26T14:17:55.107Z,6.33
2019-03-26T14:20:23.498Z,5.60
2019-03-26T14:22:51.908Z,5.60
2019-03-26T14:25:20.728Z,5.37
2019-03-26T14:27:49.133Z,5.07
2019-03-26T14:30:35.197Z,4.70
2019-03-26T14:33:04.926Z,5.10
2019-03-26T14:35:33.326Z,6.50
2019-03-26T14:38:01.718Z,7.10
2019-03-26T14:40:30.127Z,6.90
2019-03-26T14:42:58.537Z,6.27
2019-03-26T14:45:26.929Z,6.23
2019-03-26T14:47:55.331Z,5.83
2019-03-26T14:50:23.863Z,5.80
2019-03-26T14:52:52.259Z,6.20
2019-03-26T14:55:20.668Z,6.17
2019-03-26T14:57:49.075Z,6.03
2019-03-26T15:00:17.737Z,6.03
2019-03-26T15:02:46.140Z,5.93
2019-03-26T15:05:14.615Z,6.20
2019-03-26T15:07:43.017Z,5.73
2019-03-26T15:10:12.252Z,5.90
2019-03-26T15:15:52.896Z,7.30
2019-03-26T15:18:21.296Z,7.27
2019-03-26T15:20:49.708Z,7.00
2019-03-26T15:23:18.093Z,7.20
2019-03-26T15:25:46.521Z,7.13
2019-03-26T15:28:14.929Z,7.53
2019-03-26T15:30:43.339Z,7.73
2019-03-26T15:33:11.740Z,8.70
2019-03-26T15:35:40.155Z,8.60
2019-03-26T15:38:08.562Z,8.20
2019-03-26T15:40:36.977Z,7.80
2019-03-26T15:43:05.635Z,8.03
2019-03-26T15:45:34.073Z,7.50
2019-03-26T15:48:02.790Z,8.10
2019-03-26T15:50:41.725Z,6.93
2019-03-26T15:53:10.296Z,7.23
2019-03-26T15:55:39.347Z,7.80
2019-03-26T15:58:07.995Z,7.00
2019-03-26T16:00:36.482Z,9.20
2019-03-26T16:03:05.872Z,8.80
2019-03-26T16:05:34.291Z,9.67
2019-03-26T16:08:03.031Z,9.67
2019-03-26T16:10:31.444Z,9.53
2019-03-26T16:12:59.889Z,9.37
2019-03-26T16:15:28.289Z,9.83
2019-03-26T16:17:56.686Z,8.80
2019-03-26T16:20:25.097Z,9.13
2019-03-26T16:22:53.499Z,9.20
2019-03-26T16:25:21.910Z,9.93
2019-03-26T16:27:50.753Z,10.43
2019-03-26T16:30:19.332Z,10.63
2019-03-26T16:32:48.303Z,9.47
2019-03-26T16:35:16.707Z,9.83
2019-03-26T16:37:45.139Z,10.37
2019-03-26T16:40:13.627Z,12.20
2019-03-26T16:42:42.027Z,11.67
2019-03-26T16:45:11.285Z,11.50
2019-03-26T16:47:39.995Z,11.63
2019-03-26T16:50:09.046Z,11.57
2019-03-26T16:52:37.433Z,11.50
2019-03-26T16:55:07.447Z,11.57
2019-03-26T16:57:35.859Z,11.30
2019-03-26T17:00:07.249Z,13.10
2019-03-26T17:02:35.663Z,12.83
2019-03-26T17:05:05.696Z,12.80
2019-03-26T17:07:34.124Z,11.20
2019-03-26T17:10:02.599Z,11.50
2019-03-26T17:12:31.011Z,12.00
2019-03-26T17:15:00.514Z,10.37
2019-03-26T17:17:28.974Z,12.60
2019-03-26T17:19:57.457Z,11.10
2019-03-26T17:22:25.866Z,10.50
2019-03-26T17:24:54.299Z,11.73
2019-03-26T17:27:22.719Z,12.00
2019-03-26T17:29:51.145Z,12.93
2019-03-26T17:32:19.547Z,11.13
2019-03-26T17:34:47.935Z,13.33
2019-03-26T17:37:16.371Z,12.37
2019-03-26T17:39:44.755Z,13.90
2019-03-26T17:42:17.474Z,12.30
2019-03-26T17:44:44.308Z,11.23
2019-03-26T17:47:12.727Z,11.90
2019-03-26T17:49:41.143Z,11.60
2019-03-26T17:52:09.569Z,12.30
2019-03-26T17:54:37.954Z,11.93
2019-03-26T17:57:06.409Z,11.20
2019-03-26T17:59:34.786Z,11.53
2019-03-26T18:02:03.225Z,11.37
2019-03-26T18:04:32.340Z,12.30
2019-03-26T18:07:00.739Z,11.43
2019-03-26T18:09:30.145Z,21.90
2019-03-26T18:11:58.563Z,23.00
2019-03-26T18:14:26.960Z,20.27
2019-03-26T18:16:55.371Z,19.40
2019-03-26T18:19:23.785Z,11.33
2019-03-26T18:21:52.440Z,12.10
2019-03-26T18:24:23.883Z,10.73
2019-03-26T18:26:52.314Z,12.83
2019-03-26T18:29:20.707Z,12.87
2019-03-26T18:31:49.140Z,11.20
2019-03-26T18:34:17.591Z,10.20
2019-03-26T18:36:46.068Z,10.47
2019-03-26T18:39:14.521Z,11.80
2019-03-26T18:41:43.011Z,11.20
2019-03-26T18:44:11.449Z,11.10
2019-03-26T18:46:39.859Z,10.93
2019-03-26T18:49:08.278Z,10.57
2019-03-26T18:51:37.603Z,11.60
2019-03-26T18:54:06.001Z,14.70
2019-03-26T18:56:34.419Z,15.70
2019-03-26T18:59:02.874Z,14.43
2019-03-26T19:01:31.321Z,11.90
2019-03-26T19:03:59.729Z,12.50
2019-03-26T19:06:28.128Z,45.33
2019-03-26T19:08:56.588Z,53.03
2019-03-26T19:11:25.038Z,45.20
2019-03-26T19:13:53.438Z,30.10
2019-03-26T19:16:21.851Z,17.47
2019-03-26T19:18:50.390Z,16.73
2019-03-26T19:21:19.785Z,16.47
2019-03-26T19:23:48.193Z,15.07
2019-03-26T19:26:16.618Z,10.73
2019-03-26T19:28:45.025Z,10.47
2019-03-26T19:31:13.436Z,9.87
2019-03-26T19:33:41.841Z,10.10
2019-03-26T19:36:10.239Z,10.83
2019-03-26T19:38:38.659Z,11.20
2019-03-26T19:41:07.063Z,13.27
2019-03-26T19:43:35.485Z,11.70
2019-03-26T19:46:04.962Z,11.13
2019-03-26T19:48:33.379Z,10.87
2019-03-26T19:51:01.781Z,10.83
2019-03-26T19:53:30.201Z,9.73
2019-03-26T19:55:58.603Z,9.57
2019-03-26T19:58:27.082Z,11.50
2019-03-26T20:00:55.502Z,9.50
2019-03-26T20:03:23.916Z,10.40
2019-03-26T20:05:52.333Z,11.37
2019-03-26T20:08:20.750Z,10.30
2019-03-26T20:10:49.159Z,9.70
2019-03-26T20:13:24.168Z,11.77
2019-03-26T20:15:47.801Z,9.83
2019-03-26T20:18:16.244Z,11.80
2019-03-26T20:20:44.660Z,10.53
2019-03-26T20:23:13.098Z,10.60
2019-03-26T20:25:41.529Z,10.00
2019-03-26T20:28:09.940Z,11.40
2019-03-26T20:30:38.358Z,9.97
2019-03-26T20:33:06.838Z,9.97
2019-03-26T20:35:35.266Z,10.43
2019-03-26T20:38:03.771Z,11.90
2019-03-26T20:40:32.169Z,10.83
2019-03-26T20:43:00.610Z,11.40
2019-03-26T20:45:29.030Z,10.27
2019-03-26T20:47:57.452Z,9.23
2019-03-26T20:50:25.939Z,9.90
2019-03-26T20:52:54.343Z,8.87
2019-03-26T20:55:30.655Z,9.87
2019-03-26T20:57:59.698Z,10.53
2019-03-26T21:00:36.613Z,10.37
2019-03-26T21:03:05.415Z,10.80
2019-03-26T21:05:34.033Z,14.27
2019-03-26T21:08:02.448Z,13.30
2019-03-26T21:10:30.856Z,13.10
2019-03-26T21:12:59.293Z,12.80
2019-03-26T21:15:28.649Z,10.57
2019-03-26T21:17:57.063Z,11.10
2019-03-26T21:20:25.466Z,10.10
2019-03-26T21:22:53.935Z,11.53
2019-03-26T21:25:22.345Z,11.10
2019-03-26T21:27:50.759Z,10.47
2019-03-26T21:30:20.900Z,10.93
2019-03-26T21:32:49.323Z,12.10
2019-03-26T21:35:17.737Z,10.93
2019-03-26T21:37:46.166Z,10.47
2019-03-26T21:40:16.085Z,10.50
2019-03-26T21:42:44.517Z,11.60
2019-03-26T21:45:13.669Z,11.30
2019-03-26T21:47:42.093Z,12.33
2019-03-26T21:50:10.842Z,11.17
2019-03-26T21:52:39.253Z,11.27
2019-03-26T21:55:09.289Z,11.90
2019-03-26T21:57:37.698Z,12.70
2019-03-26T22:00:09.756Z,12.10
2019-03-26T22:02:38.256Z,13.33
2019-03-26T22:05:10.187Z,13.40
2019-03-26T22:07:38.611Z,11.57
2019-03-26T22:10:08.260Z,13.40
2019-03-26T22:12:36.747Z,13.13
2019-03-26T22:15:07.569Z,10.90
2019-03-26T22:17:35.989Z,10.60
2019-03-26T22:20:05.727Z,11.97
2019-03-26T22:22:34.212Z,12.20
2019-03-26T22:25:02.784Z,11.80
2019-03-26T22:27:31.192Z,11.47
2019-03-26T22:29:59.589Z,12.17
2019-03-26T22:32:28.017Z,12.20
2019-03-26T22:34:56.428Z,11.97
2019-03-26T22:37:24.839Z,10.90
2019-03-26T22:39:53.252Z,10.80
2019-03-26T22:42:21.667Z,11.03
2019-03-26T22:44:50.080Z,11.10
2019-03-26T22:47:18.488Z,11.63
2019-03-26T22:49:46.909Z,11.10
2019-03-26T22:52:15.316Z,12.37
2019-03-26T22:54:43.727Z,11.33
2019-03-26T22:57:12.130Z,11.07
2019-03-26T22:59:40.544Z,10.97
2019-03-26T23:02:10.028Z,10.60
2019-03-26T23:04:38.439Z,11.73
2019-03-26T23:07:07.186Z,12.13
2019-03-26T23:09:38.855Z,11.47
2019-03-26T23:12:05.722Z,12.30
2019-03-26T23:14:44.521Z,11.67
2019-03-26T23:17:04.324Z,12.10
2019-03-26T23:19:32.744Z,12.33
2019-03-26T23:22:01.135Z,13.13
2019-03-26T23:24:29.551Z,13.17
2019-03-26T23:26:57.941Z,11.60
2019-03-26T23:29:26.355Z,12.20
2019-03-26T23:31:54.764Z,13.30
2019-03-26T23:34:23.184Z,11.70
2019-03-26T23:36:52.578Z,11.97
2019-03-26T23:39:20.988Z,12.90
2019-03-26T23:41:49.393Z,14.00
2019-03-26T23:44:25.895Z,13.20
2019-03-26T23:46:48.011Z,13.10
2019-03-26T23:49:16.427Z,13.60
2019-03-26T23:51:44.827Z,12.37
2019-03-26T23:54:13.228Z,11.90
2019-03-26T23:56:41.649Z,11.90
2019-03-26T23:59:10.064Z,13.77
